createdAt,value
2022-10-26T00:02:23.488Z,101430.03
2022-10-26T00:04:55.477Z,101434.97
2022-10-26T00:07:27.178Z,101431.50
2022-10-26T00:09:58.997Z,101432.94
2022-10-26T00:12:30.617Z,101430.19
2022-10-26T00:15:05.017Z,101428.09
2022-10-26T00:17:36.537Z,101431.66
2022-10-26T00:20:09.358Z,101418.97
2022-10-26T00:22:40.937Z,101426.78
2022-10-26T00:25:13.318Z,101430.25
2022-10-26T00:27:44.846Z,101430.56
2022-10-26T00:30:19.498Z,101437.97
2022-10-26T00:32:51.318Z,101436.41
2022-10-26T00:35:41.107Z,101441.13
2022-10-26T00:38:14.499Z,101445.63
2022-10-26T00:40:46.375Z,101453.97
2022-10-26T00:43:42.117Z,101458.31
2022-10-26T00:46:22.260Z,101454.78
2022-10-26T00:48:56.780Z,101456.41
2022-10-26T00:51:33.107Z,101454.41
2022-10-26T00:54:07.379Z,101445.88
2022-10-26T00:56:39.666Z,101451.25
2022-10-26T00:59:14.470Z,101447.66
2022-10-26T01:01:50.958Z,101437.50
2022-10-26T01:04:22.636Z,101435.44
2022-10-26T01:06:56.117Z,101441.78
2022-10-26T01:09:28.384Z,101437.66
2022-10-26T01:12:00.218Z,101446.81
2022-10-26T01:14:32.734Z,101438.41
2022-10-26T01:17:20.257Z,101439.88
2022-10-26T01:20:20.378Z,101441.72
2022-10-26T01:22:57.239Z,101436.72
2022-10-26T01:25:58.777Z,101430.25
2022-10-26T01:28:44.158Z,101434.50
2022-10-26T01:31:24.018Z,101430.84
2022-10-26T01:34:03.558Z,101431.34
2022-10-26T01:36:42.335Z,101427.66
2022-10-26T01:39:19.620Z,101427.41
2022-10-26T01:41:53.118Z,101424.34
2022-10-26T01:44:29.777Z,101422.25
2022-10-26T01:47:06.257Z,101419.47
2022-10-26T01:49:42.146Z,101414.88
2022-10-26T01:52:14.433Z,101419.25
2022-10-26T01:54:46.539Z,101416.09
2022-10-26T01:57:22.218Z,101417.25
2022-10-26T02:00:09.521Z,101413.47
2022-10-26T02:03:12.677Z,101408.19
2022-10-26T02:06:09.859Z,101411.94
2022-10-26T02:09:01.637Z,101416.53
2022-10-26T02:11:42.538Z,101417.31
2022-10-26T02:14:21.497Z,101414.19
2022-10-26T02:16:59.517Z,101416.91
2022-10-26T02:19:41.338Z,101399.94
2022-10-26T02:22:19.080Z,101396.25
2022-10-26T02:24:53.841Z,101392.50
2022-10-26T02:27:30.077Z,101393.88
2022-10-26T02:30:04.722Z,101398.94
2022-10-26T02:32:41.117Z,101398.69
2022-10-26T02:35:19.379Z,101402.94
2022-10-26T02:37:54.077Z,101398.72
2022-10-26T02:40:29.040Z,101404.09
2022-10-26T02:43:04.936Z,101399.63
2022-10-26T02:45:42.179Z,101410.28
2022-10-26T02:48:14.476Z,101419.13
2022-10-26T02:50:58.919Z,101417.00
2022-10-26T02:53:36.317Z,101416.78
2022-10-26T02:56:16.858Z,101415.50
2022-10-26T02:58:54.058Z,101419.03
2022-10-26T03:01:26.080Z,101411.03
2022-10-26T03:04:01.433Z,101406.00
2022-10-26T03:06:36.157Z,101418.78
2022-10-26T03:09:08.359Z,101419.91
2022-10-26T03:11:40.119Z,101410.69
2022-10-26T03:14:12.298Z,101425.50
2022-10-26T03:16:44.618Z,101420.25
2022-10-26T03:19:16.857Z,101412.84
2022-10-26T03:21:51.357Z,101419.88
2022-10-26T03:24:23.416Z,101420.50
2022-10-26T03:26:58.274Z,101416.56
2022-10-26T03:29:33.437Z,101420.59
2022-10-26T03:32:05.299Z,101419.38
2022-10-26T03:34:37.598Z,101416.47
2022-10-26T03:37:12.017Z,101413.16
2022-10-26T03:39:44.198Z,101416.13
2022-10-26T03:42:16.080Z,101420.78
2022-10-26T03:44:48.579Z,101422.31
2022-10-26T03:47:20.337Z,101427.38
2022-10-26T03:49:52.423Z,101418.81
2022-10-26T03:52:27.337Z,101425.59
2022-10-26T03:54:59.459Z,101420.50
2022-10-26T03:57:31.276Z,101422.44
2022-10-26T04:00:03.598Z,101414.00
2022-10-26T04:02:35.438Z,101416.28
2022-10-26T04:05:08.203Z,101414.44
2022-10-26T04:07:42.557Z,101419.34
2022-10-26T04:10:14.757Z,101426.66
2022-10-26T04:12:46.579Z,101426.81
2022-10-26T04:15:19.621Z,101426.34
2022-10-26T04:17:51.827Z,101426.81
2022-10-26T04:20:24.278Z,101425.59
2022-10-26T04:23:06.518Z,101425.41
2022-10-26T04:25:38.757Z,101429.22
2022-10-26T04:28:11.137Z,101425.06
2022-10-26T04:30:43.418Z,101430.38
2022-10-26T04:33:14.958Z,101429.28
2022-10-26T04:35:48.356Z,101429.34
2022-10-26T04:38:22.577Z,101431.13
2022-10-26T04:40:54.660Z,101431.03
2022-10-26T04:43:26.199Z,101425.22
2022-10-26T04:45:59.518Z,101428.88
2022-10-26T04:48:31.098Z,101433.84
2022-10-26T04:51:03.237Z,101433.63
2022-10-26T04:53:37.337Z,101432.97
2022-10-26T04:56:09.679Z,101434.94
2022-10-26T04:58:41.238Z,101432.19
2022-10-26T05:01:13.146Z,101420.44
2022-10-26T05:03:44.778Z,101426.31
2022-10-26T05:06:16.697Z,101424.25
2022-10-26T05:08:51.139Z,101424.28
2022-10-26T05:11:22.878Z,101421.19
2022-10-26T05:13:54.458Z,101422.72
2022-10-26T05:16:26.337Z,101429.25
2022-10-26T05:18:57.877Z,101426.66
2022-10-26T05:21:29.757Z,101421.97
2022-10-26T05:24:10.113Z,101428.09
2022-10-26T05:26:44.697Z,101432.28
2022-10-26T05:29:16.320Z,101437.47
2022-10-26T05:31:48.242Z,101429.50
2022-10-26T05:34:19.797Z,101431.38
2022-10-26T05:36:51.599Z,101421.56
2022-10-26T05:39:26.220Z,101420.88
2022-10-26T05:41:58.057Z,101428.00
2022-10-26T05:44:29.458Z,101430.09
2022-10-26T05:47:01.359Z,101426.56
2022-10-26T05:49:32.879Z,101429.72
2022-10-26T05:52:04.679Z,101434.81
2022-10-26T05:54:39.159Z,101438.41
2022-10-26T05:57:14.978Z,101432.13
2022-10-26T05:59:47.161Z,101444.06
2022-10-26T06:02:30.692Z,101442.84
2022-10-26T06:05:07.599Z,101439.72
2022-10-26T06:07:40.499Z,101446.53
2022-10-26T06:10:17.479Z,101444.13
2022-10-26T06:12:50.603Z,101443.53
2022-10-26T06:15:24.659Z,101444.06
2022-10-26T06:18:06.259Z,101441.19
2022-10-26T06:20:50.860Z,101442.94
2022-10-26T06:23:42.196Z,101438.69
2022-10-26T06:26:24.860Z,101453.19
2022-10-26T06:29:02.921Z,101455.53
2022-10-26T06:31:34.885Z,101461.94
2022-10-26T06:34:07.679Z,101464.97
2022-10-26T06:36:41.988Z,101462.94
2022-10-26T06:39:17.078Z,101467.44
2022-10-26T06:41:53.663Z,101464.53
2022-10-26T06:44:27.261Z,101458.13
2022-10-26T06:47:07.523Z,101466.69
2022-10-26T06:49:42.999Z,101458.72
2022-10-26T06:52:21.442Z,101464.97
2022-10-26T06:54:55.917Z,101471.81
2022-10-26T06:57:37.450Z,101475.81
2022-10-26T07:00:19.148Z,101468.47
2022-10-26T07:02:51.614Z,101477.78
2022-10-26T07:05:24.119Z,101474.25
2022-10-26T07:07:55.998Z,101458.50
2022-10-26T07:10:28.217Z,101471.56
2022-10-26T07:13:02.737Z,101467.41
2022-10-26T07:15:34.599Z,101473.19
2022-10-26T07:18:07.840Z,101466.66
2022-10-26T07:20:42.079Z,101464.50
2022-10-26T07:23:16.175Z,101473.13
2022-10-26T07:25:48.134Z,101468.88
2022-10-26T07:28:22.415Z,101472.66
2022-10-26T07:30:56.225Z,101475.78
2022-10-26T07:33:27.975Z,101472.97
2022-10-26T07:36:01.823Z,101470.81
2022-10-26T07:38:33.314Z,101471.03
2022-10-26T07:41:05.714Z,101476.66
2022-10-26T07:43:39.955Z,101479.09
2022-10-26T07:46:11.795Z,101483.34
2022-10-26T07:48:45.752Z,101471.72
2022-10-26T07:51:17.935Z,101476.19
2022-10-26T07:53:49.715Z,101475.69
2022-10-26T07:56:21.695Z,101471.09
2022-10-26T07:58:56.837Z,101474.28
2022-10-26T08:01:28.806Z,101473.44
2022-10-26T08:04:00.694Z,101475.81
2022-10-26T08:06:32.596Z,101476.31
2022-10-26T08:09:04.073Z,101473.56
2022-10-26T08:11:37.336Z,101477.34
2022-10-26T08:14:13.737Z,101480.00
2022-10-26T08:16:46.134Z,101475.09
2022-10-26T08:19:17.680Z,101477.94
2022-10-26T08:21:49.572Z,101482.81
2022-10-26T08:24:21.135Z,101482.84
2022-10-26T08:26:53.030Z,101488.22
2022-10-26T08:29:27.291Z,101483.88
2022-10-26T08:32:00.039Z,101484.22
2022-10-26T08:34:31.570Z,101483.25
2022-10-26T08:37:03.531Z,101471.31
2022-10-26T08:39:35.335Z,101480.97
2022-10-26T08:42:14.459Z,101475.22
2022-10-26T08:44:51.179Z,101479.59
2022-10-26T08:47:26.218Z,101471.78
2022-10-26T08:50:05.536Z,101474.78
2022-10-26T08:52:47.220Z,101477.34
2022-10-26T08:55:22.782Z,101480.22
2022-10-26T08:57:57.136Z,101481.31
2022-10-26T09:00:33.859Z,101479.09
2022-10-26T09:03:16.776Z,101479.03
2022-10-26T09:06:10.358Z,101479.44
2022-10-26T09:08:53.019Z,101475.88
2022-10-26T09:11:34.777Z,101482.38
2022-10-26T09:14:16.783Z,101470.22
2022-10-26T09:17:01.095Z,101473.03
2022-10-26T09:19:52.617Z,101474.19
2022-10-26T09:22:30.216Z,101478.38
2022-10-26T09:25:15.975Z,101485.69
2022-10-26T09:27:52.706Z,101485.03
2022-10-26T09:30:26.135Z,101483.50
2022-10-26T09:33:03.654Z,101479.50
2022-10-26T09:35:47.343Z,101480.00
2022-10-26T09:38:27.775Z,101469.09
2022-10-26T09:41:06.095Z,101476.44
2022-10-26T09:46:25.096Z,101481.47
2022-10-26T09:51:38.976Z,101485.34
2022-10-26T09:54:18.656Z,101487.72
2022-10-26T09:56:55.708Z,101479.84
2022-10-26T09:59:29.536Z,101492.47
2022-10-26T10:02:02.547Z,101477.50
2022-10-26T10:04:39.097Z,101491.28
2022-10-26T10:07:21.260Z,101482.13
2022-10-26T10:10:11.218Z,101489.78
2022-10-26T10:12:43.898Z,101491.50
2022-10-26T10:15:25.141Z,101491.75
2022-10-26T10:17:59.312Z,101488.69
2022-10-26T10:20:36.264Z,101489.22
2022-10-26T10:23:09.065Z,101489.22
2022-10-26T10:25:42.462Z,101481.66
2022-10-26T10:28:25.188Z,101480.28
2022-10-26T10:30:59.902Z,101488.47
2022-10-26T10:33:41.830Z,101490.28
2022-10-26T10:36:21.198Z,101482.13
2022-10-26T10:38:55.985Z,101478.50
2022-10-26T10:41:31.302Z,101486.81
2022-10-26T10:44:09.344Z,101478.25
2022-10-26T10:46:41.784Z,101483.09
2022-10-26T10:49:27.849Z,101481.25
2022-10-26T10:52:02.052Z,101482.13
2022-10-26T10:54:37.270Z,101475.78
2022-10-26T10:57:21.268Z,101475.56
2022-10-26T11:00:06.521Z,101481.69
2022-10-26T11:03:07.799Z,101480.59
2022-10-26T11:05:57.757Z,101475.13
2022-10-26T11:08:35.542Z,101490.41
2022-10-26T11:11:17.021Z,101476.13
2022-10-26T11:13:54.815Z,101476.53
2022-10-26T11:16:33.864Z,101488.56
2022-10-26T11:19:20.128Z,101482.97
2022-10-26T11:21:56.221Z,101480.41
2022-10-26T11:24:36.495Z,101484.16
2022-10-26T11:27:16.180Z,101483.63
2022-10-26T11:29:59.858Z,101482.22
2022-10-26T11:32:43.331Z,101474.56
2022-10-26T11:35:21.061Z,101476.75
2022-10-26T11:38:06.120Z,101472.34
2022-10-26T11:40:59.442Z,101465.44
2022-10-26T11:43:39.735Z,101454.69
2022-10-26T11:46:19.047Z,101454.94
2022-10-26T11:49:02.997Z,101450.50
2022-10-26T11:51:42.188Z,101455.97
2022-10-26T11:54:26.138Z,101454.69
2022-10-26T11:57:10.736Z,101452.44
2022-10-26T11:59:51.323Z,101450.59
2022-10-26T12:02:26.368Z,101453.13
2022-10-26T12:05:04.330Z,101449.25
2022-10-26T12:07:41.676Z,101446.69
2022-10-26T12:10:24.926Z,101448.53
2022-10-26T12:13:10.726Z,101444.34
2022-10-26T12:16:04.570Z,101442.28
2022-10-26T12:18:59.745Z,101436.53
2022-10-26T12:21:34.803Z,101441.13
2022-10-26T12:24:31.164Z,101440.50
2022-10-26T12:27:06.922Z,101432.56
2022-10-26T12:29:49.920Z,101427.56
2022-10-26T12:32:58.402Z,101433.25
2022-10-26T12:35:39.400Z,101441.78
2022-10-26T12:38:54.041Z,101431.31
2022-10-26T12:41:33.343Z,101434.38
2022-10-26T12:44:39.861Z,101428.00
2022-10-26T12:47:34.264Z,101434.69
2022-10-26T12:50:22.535Z,101434.88
2022-10-26T12:52:59.699Z,101435.97
2022-10-26T12:56:07.698Z,101431.16
2022-10-26T12:59:24.266Z,101441.25
2022-10-26T13:02:39.506Z,101434.53
2022-10-26T13:05:33.714Z,101440.56
2022-10-26T13:08:07.276Z,101436.16
2022-10-26T13:10:41.064Z,101441.25
2022-10-26T13:13:27.046Z,101437.59
2022-10-26T13:16:00.410Z,101425.66
2022-10-26T13:18:44.984Z,101423.00
2022-10-26T13:21:18.946Z,101426.94
2022-10-26T13:24:01.909Z,101421.75
2022-10-26T13:26:35.901Z,101423.78
2022-10-26T13:29:14.143Z,101421.06
2022-10-26T13:32:00.104Z,101424.25
2022-10-26T13:34:36.587Z,101433.25
2022-10-26T13:37:19.142Z,101437.63
2022-10-26T13:39:56.327Z,101440.16
2022-10-26T13:42:31.653Z,101430.91
2022-10-26T13:45:10.606Z,101438.28
2022-10-26T13:47:49.240Z,101438.25
2022-10-26T13:50:31.382Z,101441.63
2022-10-26T13:53:11.543Z,101443.72
2022-10-26T13:55:54.423Z,101444.16
2022-10-26T13:58:34.186Z,101443.69
2022-10-26T14:01:16.382Z,101442.47
2022-10-26T14:03:49.024Z,101451.31
2022-10-26T14:06:30.783Z,101446.69
2022-10-26T14:09:05.794Z,101449.84
2022-10-26T14:11:46.513Z,101452.81
2022-10-26T14:14:26.589Z,101449.03
2022-10-26T14:17:00.394Z,101451.28
2022-10-26T14:19:34.309Z,101438.69
2022-10-26T14:22:10.506Z,101446.50
2022-10-26T14:24:47.633Z,101451.53
2022-10-26T14:27:22.063Z,101442.25
2022-10-26T14:30:20.394Z,101447.09
2022-10-26T14:32:47.606Z,101456.09
2022-10-26T14:35:20.543Z,101453.38
2022-10-26T14:37:59.743Z,101457.81
2022-10-26T14:40:34.383Z,101457.41
2022-10-26T14:43:09.022Z,101459.31
2022-10-26T14:45:48.615Z,101463.06
2022-10-26T14:48:30.658Z,101467.91
2022-10-26T14:51:04.547Z,101468.06
2022-10-26T14:53:44.391Z,101472.09
2022-10-26T14:56:41.983Z,101473.56
2022-10-26T14:59:16.823Z,101477.41
2022-10-26T15:01:55.709Z,101470.41
2022-10-26T15:04:37.304Z,101479.59
2022-10-26T15:07:19.703Z,101474.13
2022-10-26T15:09:56.546Z,101483.13
2022-10-26T15:12:36.025Z,101483.53
2022-10-26T15:15:23.581Z,101483.53
2022-10-26T15:17:57.944Z,101480.00
2022-10-26T15:20:32.703Z,101479.41
2022-10-26T15:23:06.515Z,101481.06
2022-10-26T15:25:43.788Z,101474.59
2022-10-26T15:28:26.428Z,101485.03
2022-10-26T15:31:07.389Z,101477.06
2022-10-26T15:33:41.993Z,101474.53
2022-10-26T15:36:19.745Z,101481.88
2022-10-26T15:38:52.306Z,101487.25
2022-10-26T15:41:31.304Z,101490.66
2022-10-26T15:44:07.143Z,101484.69
2022-10-26T15:46:41.667Z,101489.66
2022-10-26T15:49:21.349Z,101489.91
2022-10-26T15:51:55.351Z,101497.56
2022-10-26T15:54:27.896Z,101492.13
2022-10-26T15:57:04.102Z,101496.03
2022-10-26T15:59:38.734Z,101499.31
2022-10-26T16:02:17.786Z,101502.59
2022-10-26T16:04:50.098Z,101510.25
2022-10-26T16:07:24.937Z,101503.25
2022-10-26T16:09:58.376Z,101506.44
2022-10-26T16:12:34.423Z,101509.56
2022-10-26T16:15:07.745Z,101509.19
2022-10-26T16:17:40.655Z,101518.06
2022-10-26T16:20:17.421Z,101520.84
2022-10-26T16:22:52.209Z,101521.25
2022-10-26T16:25:27.978Z,101517.50
2022-10-26T16:28:04.748Z,101510.53
2022-10-26T16:30:37.152Z,101520.09
2022-10-26T16:33:09.585Z,101527.56
2022-10-26T16:35:41.749Z,101520.63
2022-10-26T16:38:14.303Z,101522.63
2022-10-26T16:40:46.943Z,101522.78
2022-10-26T16:43:22.563Z,101513.56
2022-10-26T16:45:57.821Z,101520.06
2022-10-26T16:48:30.291Z,101521.56
2022-10-26T16:51:11.623Z,101532.66
2022-10-26T16:53:44.603Z,101530.03
2022-10-26T16:56:18.601Z,101534.72
2022-10-26T16:58:54.043Z,101545.28
2022-10-26T17:01:26.536Z,101539.50
2022-10-26T17:04:01.331Z,101537.66
2022-10-26T17:06:33.482Z,101546.56
2022-10-26T17:09:06.081Z,101541.00
2022-10-26T17:11:38.202Z,101554.78
2022-10-26T17:14:13.507Z,101547.38
2022-10-26T17:16:45.644Z,101553.31
2022-10-26T17:19:18.363Z,101555.94
2022-10-26T17:21:50.543Z,101567.44
2022-10-26T17:24:23.203Z,101572.50
2022-10-26T17:26:55.541Z,101571.06
2022-10-26T17:29:31.081Z,101565.38
2022-10-26T17:32:03.123Z,101574.00
2022-10-26T17:34:35.782Z,101580.47
2022-10-26T17:37:07.965Z,101576.13
2022-10-26T17:39:40.508Z,101583.19
2022-10-26T17:42:12.642Z,101583.84
2022-10-26T17:44:47.864Z,101588.25
2022-10-26T17:47:19.881Z,101584.69
2022-10-26T17:49:52.450Z,101587.19
2022-10-26T17:52:25.003Z,101586.94
2022-10-26T17:54:59.278Z,101585.16
2022-10-26T17:57:35.473Z,101590.06
2022-10-26T18:00:12.324Z,101588.41
2022-10-26T18:02:44.711Z,101596.03
2022-10-26T18:05:17.402Z,101598.56
2022-10-26T18:07:49.758Z,101600.78
2022-10-26T18:10:38.503Z,101609.75
2022-10-26T18:13:10.824Z,101616.13
2022-10-26T18:15:46.549Z,101620.09
2022-10-26T18:18:18.844Z,101627.91
2022-10-26T18:20:51.622Z,101621.94
2022-10-26T18:23:23.804Z,101626.19
2022-10-26T18:26:09.719Z,101636.03
2022-10-26T18:28:45.708Z,101636.94
2022-10-26T18:31:23.187Z,101640.78
2022-10-26T18:33:59.222Z,101639.28
2022-10-26T18:36:32.677Z,101647.63
2022-10-26T18:39:04.908Z,101648.53
2022-10-26T20:15:15.238Z,101716.22
2022-10-26T20:17:47.822Z,101720.81
2022-10-26T20:20:19.790Z,101719.28
2022-10-26T20:22:52.168Z,101715.06
2022-10-26T20:25:24.733Z,101727.41
2022-10-26T20:27:57.210Z,101726.22
2022-10-26T20:30:33.299Z,101740.97
2022-10-26T20:33:05.654Z,101734.06
2022-10-26T20:35:37.749Z,101736.09
2022-10-26T20:38:18.816Z,101743.38
2022-10-26T20:40:56.904Z,101748.81
2022-10-26T20:43:30.561Z,101746.25
2022-10-26T20:46:05.478Z,101745.25
2022-10-26T20:48:38.904Z,101756.22
2022-10-26T20:51:19.787Z,101748.81
2022-10-26T20:54:00.999Z,101759.47
2022-10-26T20:56:33.277Z,101750.66
2022-10-26T20:59:06.999Z,101761.81
2022-10-26T21:01:41.543Z,101762.16
2022-10-26T21:04:13.523Z,101762.16
2022-10-26T21:06:45.238Z,101766.91
2022-10-26T21:09:17.160Z,101764.00
2022-10-26T21:11:48.837Z,101772.13
2022-10-26T21:14:20.698Z,101773.94
2022-10-26T21:16:54.917Z,101776.34
2022-10-26T21:19:26.857Z,101776.31
2022-10-26T21:21:58.479Z,101776.81
2022-10-26T21:24:30.446Z,101775.50
2022-10-26T21:27:01.979Z,101778.53
2022-10-26T21:29:33.959Z,101777.00
2022-10-26T21:32:08.740Z,101780.38
2022-10-26T21:34:40.478Z,101769.53
2022-10-26T21:37:11.977Z,101782.38
2022-10-26T21:39:44.099Z,101784.91
2022-10-26T21:42:15.638Z,101790.00
2022-10-26T21:44:47.607Z,101794.03
2022-10-26T21:47:21.878Z,101797.09
2022-10-26T21:49:53.761Z,101800.47
2022-10-26T21:52:25.317Z,101808.44
2022-10-26T21:54:57.418Z,101801.13
2022-10-26T21:57:29.007Z,101811.47
2022-10-26T22:00:00.838Z,101808.44
2022-10-26T22:02:35.177Z,101810.13
2022-10-26T22:05:07.680Z,101812.63
2022-10-26T22:07:39.318Z,101823.41
2022-10-26T22:10:11.537Z,101811.56
2022-10-26T22:12:43.337Z,101811.25
2022-10-26T22:15:15.397Z,101800.75
2022-10-26T22:17:49.843Z,101807.16
2022-10-26T22:20:21.939Z,101805.81
2022-10-26T22:22:53.431Z,101805.44
2022-10-26T22:25:25.457Z,101807.13
2022-10-26T22:27:57.039Z,101806.16
2022-10-26T22:30:29.158Z,101813.97
2022-10-26T22:33:03.243Z,101809.69
2022-10-26T22:35:35.037Z,101814.44
2022-10-26T22:38:06.499Z,101810.69
2022-10-26T22:40:40.339Z,101812.06
2022-10-26T22:43:12.217Z,101811.50
2022-10-26T22:45:44.477Z,101820.13
2022-10-26T22:48:19.119Z,101813.38
2022-10-26T22:50:51.257Z,101814.91
2022-10-26T22:53:23.137Z,101821.13
2022-10-26T22:55:57.619Z,101813.88
2022-10-26T22:58:29.357Z,101823.69
2022-10-26T23:01:06.642Z,101821.94
2022-10-26T23:03:41.520Z,101831.25
2022-10-26T23:06:16.236Z,101832.56
2022-10-26T23:08:48.416Z,101830.75
2022-10-26T23:11:22.598Z,101838.16
2022-10-26T23:13:56.637Z,101838.94
2022-10-26T23:16:29.860Z,101843.38
2022-10-26T23:19:04.437Z,101845.00
2022-10-26T23:21:36.886Z,101852.28
2022-10-26T23:24:09.407Z,101845.16
2022-10-26T23:26:41.777Z,101848.56
2022-10-26T23:29:13.879Z,101855.13
2022-10-26T23:31:46.038Z,101859.75
2022-10-26T23:34:20.417Z,101859.09
2022-10-26T23:36:52.297Z,101865.81
2022-10-26T23:39:23.838Z,101868.91
2022-10-26T23:41:55.639Z,101864.31
2022-10-26T23:44:27.060Z,101864.09
2022-10-26T23:46:59.180Z,101861.94
2022-10-26T23:49:33.298Z,101863.34
2022-10-26T23:52:05.298Z,101864.16
2022-10-26T23:54:36.744Z,101860.97
2022-10-26T23:57:08.600Z,101864.63
2022-10-26T23:59:40.058Z,101866.31
